Time;durP1;ratioP1;P1;durP2;ratioP2;P2;SDS_P1;SDS_P2;PMS_P1;PMS_P2;Temp;Humidity;BMP_temperature;BMP_pressure;BME280_temperature;BME280_humidity;BME280_pressure;Samples;Min_cycle;Max_cycle;Signal;HPM_P1;HPM_P2
2022/03/16 00:01:55;;;;;;;73.37;47.57;;;;;;;;;;5015245;28;20500;-35
2022/03/16 00:04:21;;;;;;;77.03;49.53;;;;;;;;;;5013540;28;20684;-35
2022/03/16 00:06:47;;;;;;;78.03;49.63;;;;;;;;;;5012630;28;20184;-36
2022/03/16 00:09:13;;;;;;;73.03;48.53;;;;;;;;;;5011544;28;20741;-36
2022/03/16 00:11:39;;;;;;;72.93;49.83;;;;;;;;;;5011117;28;20426;-35
2022/03/16 00:14:05;;;;;;;75.27;50.50;;;;;;;;;;5012016;28;20422;-35
2022/03/16 00:16:31;;;;;;;75.50;48.33;;;;;;;;;;5014471;28;20804;-36
2022/03/16 00:18:57;;;;;;;74.20;49.20;;;;;;;;;;5009711;28;20660;-36
2022/03/16 00:21:23;;;;;;;73.77;49.03;;;;;;;;;;5012654;28;20200;-36
2022/03/16 00:23:50;;;;;;;74.10;49.23;;;;;;;;;;5011476;28;20993;-35
2022/03/16 00:26:16;;;;;;;68.63;46.23;;;;;;;;;;5016210;28;20617;-36
2022/03/16 00:28:42;;;;;;;77.40;49.47;;;;;;;;;;5013320;28;20426;-36
2022/03/16 00:31:08;;;;;;;70.73;47.90;;;;;;;;;;5011399;28;21002;-36
2022/03/16 00:33:34;;;;;;;76.87;49.83;;;;;;;;;;5010027;28;20643;-36
2022/03/16 00:36:00;;;;;;;79.10;50.97;;;;;;;;;;5010696;28;21002;-36
2022/03/16 00:38:26;;;;;;;74.43;48.77;;;;;;;;;;5016319;28;21276;-36
2022/03/16 00:40:52;;;;;;;75.80;49.90;;;;;;;;;;5014519;28;20434;-36
2022/03/16 00:43:18;;;;;;;79.53;51.27;;;;;;;;;;5011366;28;20449;-35
2022/03/16 00:45:44;;;;;;;76.97;50.60;;;;;;;;;;5010801;28;20477;-36
2022/03/16 00:48:10;;;;;;;79.53;51.13;;;;;;;;;;5011075;28;21270;-36
2022/03/16 00:50:37;;;;;;;82.53;51.97;;;;;;;;;;5011077;28;21345;-36
2022/03/16 00:53:03;;;;;;;77.70;50.53;;;;;;;;;;5012271;28;20432;-36
2022/03/16 00:55:29;;;;;;;75.40;49.73;;;;;;;;;;5008928;28;20200;-36
2022/03/16 00:57:55;;;;;;;75.13;50.27;;;;;;;;;;5008224;28;20560;-36
2022/03/16 01:00:21;;;;;;;77.87;48.97;;;;;;;;;;5006775;28;20792;-36
2022/03/16 01:02:47;;;;;;;77.30;50.67;;;;;;;;;;5009760;28;20533;-35
2022/03/16 01:05:13;;;;;;;81.00;50.30;;;;;;;;;;5012238;28;20439;-36
2022/03/16 01:07:39;;;;;;;78.20;50.53;;;;;;;;;;5012158;28;20532;-36
2022/03/16 01:10:06;;;;;;;76.53;49.87;;;;;;;;;;5012000;28;20207;-35
2022/03/16 01:12:32;;;;;;;78.50;50.70;;;;;;;;;;5011846;28;20433;-36
2022/03/16 01:14:58;;;;;;;80.47;51.73;;;;;;;;;;5009789;28;20767;-35
2022/03/16 01:17:24;;;;;;;80.17;51.30;;;;;;;;;;5013809;28;20421;-36
2022/03/16 01:19:51;;;;;;;78.20;51.00;;;;;;;;;;5013182;28;20426;-35
2022/03/16 01:22:17;;;;;;;76.30;48.90;;;;;;;;;;5013730;28;20850;-36
2022/03/16 01:24:43;;;;;;;73.83;49.63;;;;;;;;;;5009281;28;20439;-35
2022/03/16 01:27:09;;;;;;;77.50;49.27;;;;;;;;;;5007240;28;20874;-35
2022/03/16 01:29:35;;;;;;;76.47;49.00;;;;;;;;;;5008979;28;20769;-36
2022/03/16 01:32:01;;;;;;;77.33;50.53;;;;;;;;;;5012138;28;20173;-35
2022/03/16 01:34:27;;;;;;;80.00;51.57;;;;;;;;;;5010272;28;20191;-35
2022/03/16 01:36:54;;;;;;;82.00;51.17;;;;;;;;;;5006119;28;20422;-36
2022/03/16 01:39:20;;;;;;;81.70;52.57;;;;;;;;;;5008734;28;20439;-34
2022/03/16 01:41:46;;;;;;;78.80;51.23;;;;;;;;;;5012553;28;20429;-34
2022/03/16 01:44:12;;;;;;;85.00;54.03;;;;;;;;;;5013483;28;20429;-33
2022/03/16 01:46:38;;;;;;;84.93;53.47;;;;;;;;;;5012042;28;20944;-34
2022/03/16 01:49:05;;;;;;;83.23;52.80;;;;;;;;;;5009163;28;20180;-33
2022/03/16 01:51:31;;;;;;;80.90;52.07;;;;;;;;;;5006544;28;20698;-33
2022/03/16 01:53:57;;;;;;;76.20;51.27;;;;;;;;;;5011931;28;20955;-34
2022/03/16 01:56:23;;;;;;;80.83;52.27;;;;;;;;;;5015303;28;20652;-34
2022/03/16 01:58:49;;;;;;;84.23;52.67;;;;;;;;;;5010187;28;20169;-34
2022/03/16 02:01:15;;;;;;;78.00;51.73;;;;;;;;;;5008988;28;20966;-34
2022/03/16 02:03:42;;;;;;;79.53;51.33;;;;;;;;;;5008980;28;20178;-34
2022/03/16 02:06:09;;;;;;;82.23;54.00;;;;;;;;;;5014581;28;20452;-34
2022/03/16 02:08:36;;;;;;;83.53;52.77;;;;;;;;;;5012533;28;20172;-34
2022/03/16 02:11:03;;;;;;;85.40;52.47;;;;;;;;;;5009334;28;20659;-36
2022/03/16 02:13:29;;;;;;;91.40;56.67;;;;;;;;;;5009863;28;20867;-34
2022/03/16 02:15:55;;;;;;;81.67;52.67;;;;;;;;;;5012559;28;20192;-34
2022/03/16 02:18:21;;;;;;;84.97;52.80;;;;;;;;;;5011959;28;20212;-34
2022/03/16 02:20:50;;;;;;;84.53;53.20;;;;;;;;;;5010093;28;20605;-34
2022/03/16 02:23:16;;;;;;;77.50;51.97;;;;;;;;;;5008510;28;20430;-34
2022/03/16 02:25:55;;;;;;;80.60;51.77;;;;;;;;;;5008199;28;20208;-34
2022/03/16 02:28:22;;;;;;;82.40;53.07;;;;;;;;;;5010400;28;20931;-34
2022/03/16 02:30:49;;;;;;;81.50;51.90;;;;;;;;;;5011824;28;21050;-34
2022/03/16 02:33:15;;;;;;;82.20;52.20;;;;;;;;;;5009314;28;20184;-34
2022/03/16 02:35:42;;;;;;;79.07;51.17;;;;;;;;;;5005607;28;20450;-34
2022/03/16 02:38:08;;;;;;;82.40;51.30;;;;;;;;;;5011285;28;20426;-34
2022/03/16 02:40:34;;;;;;;83.07;52.93;;;;;;;;;;5011869;28;20762;-34
2022/03/16 02:43:01;;;;;;;80.97;51.03;;;;;;;;;;5012063;28;20422;-34
2022/03/16 02:45:27;;;;;;;75.47;50.33;;;;;;;;;;5007337;28;21008;-34
2022/03/16 02:47:53;;;;;;;77.53;51.40;;;;;;;;;;5008339;28;20933;-34
2022/03/16 02:50:19;;;;;;;84.43;50.73;;;;;;;;;;5008589;28;24123;-34
2022/03/16 02:52:46;;;;;;;77.50;48.93;;;;;;;;;;5008821;28;20809;-34
2022/03/16 02:55:12;;;;;;;77.83;48.53;;;;;;;;;;5010116;28;21085;-34
2022/03/16 02:57:39;;;;;;;73.63;47.83;;;;;;;;;;5006628;28;20846;-34
2022/03/16 03:00:06;;;;;;;76.40;49.10;;;;;;;;;;5008969;28;20843;-34
2022/03/16 03:02:32;;;;;;;76.17;50.93;;;;;;;;;;5010746;28;20525;-34
2022/03/16 03:04:58;;;;;;;77.17;50.10;;;;;;;;;;5008442;28;20476;-34
2022/03/16 03:07:24;;;;;;;76.13;50.13;;;;;;;;;;5008396;28;20426;-34
2022/03/16 03:09:50;;;;;;;80.83;51.33;;;;;;;;;;5013076;28;21305;-34
2022/03/16 03:12:16;;;;;;;79.90;50.63;;;;;;;;;;5011646;28;20529;-34
2022/03/16 03:14:43;;;;;;;76.60;49.83;;;;;;;;;;5009992;28;20172;-34
2022/03/16 03:17:09;;;;;;;81.00;48.80;;;;;;;;;;5008817;28;20727;-34
2022/03/16 03:19:35;;;;;;;78.47;49.90;;;;;;;;;;5011042;28;20541;-34
2022/03/16 03:22:01;;;;;;;74.90;48.40;;;;;;;;;;5011702;28;20195;-34
2022/03/16 03:24:27;;;;;;;79.00;49.20;;;;;;;;;;5008455;28;20195;-34
2022/03/16 03:26:53;;;;;;;77.70;48.20;;;;;;;;;;5005258;28;21007;-34
2022/03/16 03:29:19;;;;;;;72.57;47.60;;;;;;;;;;5009081;28;21217;-34
2022/03/16 03:31:45;;;;;;;70.57;45.47;;;;;;;;;;5012352;28;20760;-35
2022/03/16 03:34:12;;;;;;;70.03;45.63;;;;;;;;;;5011402;28;20188;-34
2022/03/16 03:36:38;;;;;;;69.10;45.83;;;;;;;;;;5009235;28;20878;-34
2022/03/16 03:39:04;;;;;;;71.40;46.80;;;;;;;;;;5007648;28;20263;-34
2022/03/16 03:41:30;;;;;;;74.97;46.10;;;;;;;;;;5009625;28;20636;-34
2022/03/16 03:43:56;;;;;;;69.20;45.10;;;;;;;;;;5012509;28;20304;-34
2022/03/16 03:46:22;;;;;;;71.47;45.77;;;;;;;;;;5008999;28;20350;-34
2022/03/16 03:48:48;;;;;;;69.13;47.20;;;;;;;;;;5007701;28;20654;-34
2022/03/16 03:51:14;;;;;;;75.63;47.03;;;;;;;;;;5005857;28;20492;-34
2022/03/16 03:53:40;;;;;;;67.13;45.20;;;;;;;;;;5010469;28;20433;-34
2022/03/16 03:56:06;;;;;;;70.80;46.97;;;;;;;;;;5015300;28;20607;-34
2022/03/16 03:58:32;;;;;;;75.13;47.43;;;;;;;;;;5009520;28;20642;-34
2022/03/16 04:00:58;;;;;;;73.70;47.47;;;;;;;;;;5006148;28;20180;-34
2022/03/16 04:03:25;;;;;;;71.07;46.70;;;;;;;;;;5007632;28;20391;-34
2022/03/16 04:05:51;;;;;;;74.20;48.07;;;;;;;;;;5011109;28;20422;-34
2022/03/16 04:08:17;;;;;;;75.73;47.30;;;;;;;;;;5011211;28;20430;-34
2022/03/16 04:10:43;;;;;;;71.33;45.80;;;;;;;;;;5011797;28;20556;-34
2022/03/16 04:13:09;;;;;;;75.63;46.57;;;;;;;;;;5008208;28;20846;-34
2022/03/16 04:15:35;;;;;;;68.10;45.47;;;;;;;;;;5008199;28;20177;-34
2022/03/16 04:18:01;;;;;;;72.07;47.27;;;;;;;;;;5009054;28;20808;-34
2022/03/16 04:20:28;;;;;;;72.57;47.70;;;;;;;;;;5008394;28;20187;-34
2022/03/16 04:22:54;;;;;;;73.07;46.20;;;;;;;;;;5009989;28;20533;-34
2022/03/16 04:25:20;;;;;;;76.93;45.70;;;;;;;;;;5007709;28;20894;-35
2022/03/16 04:27:46;;;;;;;70.23;47.67;;;;;;;;;;5009548;28;20604;-34
2022/03/16 04:30:12;;;;;;;68.10;45.23;;;;;;;;;;5011350;28;20762;-34
2022/03/16 04:32:38;;;;;;;69.80;46.10;;;;;;;;;;5012917;28;20223;-34
2022/03/16 04:35:05;;;;;;;69.10;47.43;;;;;;;;;;5009851;28;20799;-34
2022/03/16 04:37:32;;;;;;;72.13;45.90;;;;;;;;;;5012722;28;20611;-34
2022/03/16 04:39:58;;;;;;;73.50;48.23;;;;;;;;;;5011745;28;20426;-34
2022/03/16 04:42:25;;;;;;;71.80;46.73;;;;;;;;;;5013951;28;20588;-34
2022/03/16 04:44:51;;;;;;;74.40;46.27;;;;;;;;;;5011757;28;20694;-34
2022/03/16 04:47:17;;;;;;;73.57;47.50;;;;;;;;;;5010885;28;20183;-34
2022/03/16 04:49:43;;;;;;;72.63;48.20;;;;;;;;;;5011466;28;20261;-37
2022/03/16 04:52:09;;;;;;;76.40;49.83;;;;;;;;;;5013607;28;20410;-34
2022/03/16 04:54:35;;;;;;;70.93;45.93;;;;;;;;;;5015684;28;20457;-34
2022/03/16 04:57:01;;;;;;;71.87;46.27;;;;;;;;;;5012284;28;20406;-34
2022/03/16 04:59:27;;;;;;;75.50;46.20;;;;;;;;;;5009009;28;20250;-34
2022/03/16 05:01:53;;;;;;;69.80;45.33;;;;;;;;;;5011085;28;20172;-34
2022/03/16 05:04:19;;;;;;;77.83;48.17;;;;;;;;;;5008970;28;20445;-34
2022/03/16 05:06:45;;;;;;;69.93;46.07;;;;;;;;;;5014575;28;20484;-34
2022/03/16 05:09:11;;;;;;;69.60;44.67;;;;;;;;;;5012450;28;20561;-35
2022/03/16 05:11:40;;;;;;;69.47;45.27;;;;;;;;;;5014817;28;20227;-34
2022/03/16 05:14:07;;;;;;;70.07;45.17;;;;;;;;;;5009980;28;21826;-35
2022/03/16 05:16:33;;;;;;;68.80;46.53;;;;;;;;;;5010519;28;20278;-37
2022/03/16 05:18:59;;;;;;;72.67;47.40;;;;;;;;;;5012801;28;20283;-34
2022/03/16 05:21:25;;;;;;;69.83;46.53;;;;;;;;;;5012659;28;20275;-34
2022/03/16 05:23:51;;;;;;;72.43;46.70;;;;;;;;;;5012100;28;20364;-34
2022/03/16 05:26:17;;;;;;;73.60;46.43;;;;;;;;;;5010330;28;20651;-35
2022/03/16 05:28:43;;;;;;;74.60;47.67;;;;;;;;;;5007982;28;20442;-34
2022/03/16 05:31:09;;;;;;;73.67;48.00;;;;;;;;;;5011478;28;20200;-34
2022/03/16 05:33:35;;;;;;;70.90;45.67;;;;;;;;;;5011031;28;20177;-34
2022/03/16 05:36:02;;;;;;;69.97;46.57;;;;;;;;;;5013465;28;20742;-34
2022/03/16 05:38:28;;;;;;;69.67;45.10;;;;;;;;;;5010839;28;20176;-34
2022/03/16 05:40:54;;;;;;;73.33;45.33;;;;;;;;;;5009523;28;20616;-34
2022/03/16 05:43:23;;;;;;;71.20;46.20;;;;;;;;;;5009364;28;20465;-34
2022/03/16 05:45:50;;;;;;;67.00;45.80;;;;;;;;;;5011616;28;20425;-34
2022/03/16 05:48:16;;;;;;;68.47;44.00;;;;;;;;;;5015214;28;20433;-34
2022/03/16 05:50:45;;;;;;;66.90;44.33;;;;;;;;;;5012930;28;20188;-34
2022/03/16 05:53:11;;;;;;;75.03;45.37;;;;;;;;;;5008558;28;20249;-34
2022/03/16 05:55:37;;;;;;;77.47;46.63;;;;;;;;;;5010542;28;20465;-34
2022/03/16 05:58:03;;;;;;;68.97;45.53;;;;;;;;;;5012738;28;20249;-34
2022/03/16 06:00:31;;;;;;;68.63;46.13;;;;;;;;;;5012787;28;20817;-34
2022/03/16 06:02:58;;;;;;;73.07;46.47;;;;;;;;;;5012291;28;20421;-35
2022/03/16 06:05:24;;;;;;;73.30;46.67;;;;;;;;;;5008024;28;20430;-34
2022/03/16 06:07:50;;;;;;;75.53;44.37;;;;;;;;;;5009464;28;20434;-35
2022/03/16 06:10:17;;;;;;;65.27;42.10;;;;;;;;;;5011732;28;20446;-34
2022/03/16 06:12:57;;;;;;;69.70;42.93;;;;;;;;;;5010466;28;20204;-34
2022/03/16 06:15:24;;;;;;;62.43;41.60;;;;;;;;;;5008282;28;21033;-35
2022/03/16 06:17:51;;;;;;;62.27;42.20;;;;;;;;;;5008847;28;20172;-34
2022/03/16 06:20:17;;;;;;;65.53;43.13;;;;;;;;;;5007655;28;20631;-34
2022/03/16 06:22:43;;;;;;;66.50;41.97;;;;;;;;;;5004296;28;21073;-35
2022/03/16 06:25:09;;;;;;;64.17;41.70;;;;;;;;;;5010711;28;20442;-35
2022/03/16 06:27:35;;;;;;;63.00;42.73;;;;;;;;;;5008085;28;20415;-35
2022/03/16 06:30:01;;;;;;;62.63;41.80;;;;;;;;;;5004332;28;20470;-35
2022/03/16 06:32:28;;;;;;;64.67;41.63;;;;;;;;;;5009175;28;20168;-36
2022/03/16 06:34:54;;;;;;;68.37;43.00;;;;;;;;;;5015971;28;20432;-35
2022/03/16 06:37:20;;;;;;;67.03;43.23;;;;;;;;;;5008827;28;20271;-35
2022/03/16 06:39:46;;;;;;;65.47;42.57;;;;;;;;;;5016775;28;20172;-36
2022/03/16 06:42:12;;;;;;;64.70;41.03;;;;;;;;;;5012495;28;20169;-36
2022/03/16 06:44:38;;;;;;;61.77;41.90;;;;;;;;;;5009800;28;20242;-36
2022/03/16 06:47:04;;;;;;;63.30;39.50;;;;;;;;;;5010890;28;20248;-36
2022/03/16 06:49:30;;;;;;;64.70;42.15;;;;;;;;;;5011980;28;20750;-36
2022/03/16 06:51:56;;;;;;;63.93;39.77;;;;;;;;;;5007974;28;20735;-36
2022/03/16 06:54:22;;;;;;;61.87;39.17;;;;;;;;;;5009616;28;20616;-35
2022/03/16 06:56:48;;;;;;;62.57;40.00;;;;;;;;;;5011736;28;20715;-35
2022/03/16 06:59:15;;;;;;;61.00;39.97;;;;;;;;;;5016182;28;20285;-36
2022/03/16 07:01:41;;;;;;;63.00;40.83;;;;;;;;;;5012083;28;20172;-36
2022/03/16 07:04:07;;;;;;;59.87;39.70;;;;;;;;;;5010082;28;20967;-36
2022/03/16 07:06:33;;;;;;;61.77;40.23;;;;;;;;;;5001364;28;20218;-36
2022/03/16 07:08:59;;;;;;;58.97;39.77;;;;;;;;;;5006744;28;20746;-36
2022/03/16 07:11:25;;;;;;;58.73;39.60;;;;;;;;;;5010550;28;20211;-36
2022/03/16 07:16:36;;;;;;;60.60;39.10;;;;;;;;;;5007756;28;20659;-36
2022/03/16 07:19:02;;;;;;;56.23;38.57;;;;;;;;;;5007211;28;20191;-36
2022/03/16 07:21:28;;;;;;;58.63;39.07;;;;;;;;;;5007369;28;20215;-36
2022/03/16 07:23:55;;;;;;;54.03;38.13;;;;;;;;;;5010201;28;20265;-36
2022/03/16 07:26:21;;;;;;;64.50;38.10;;;;;;;;;;5010060;28;20195;-36
2022/03/16 07:28:47;;;;;;;61.90;38.20;;;;;;;;;;5008855;28;20180;-37
2022/03/16 07:31:13;;;;;;;56.03;37.53;;;;;;;;;;5008818;28;20255;-36
2022/03/16 07:33:39;;;;;;;55.77;37.03;;;;;;;;;;5007124;28;20316;-36
2022/03/16 07:36:05;;;;;;;55.57;37.33;;;;;;;;;;5009570;28;20175;-36
2022/03/16 07:38:31;;;;;;;55.67;35.73;;;;;;;;;;5012027;28;20181;-36
2022/03/16 07:40:59;;;;;;;55.80;36.63;;;;;;;;;;5012191;28;20467;-36
2022/03/16 07:43:25;;;;;;;57.63;38.27;;;;;;;;;;5010564;28;20180;-36
2022/03/16 07:45:51;;;;;;;58.80;38.60;;;;;;;;;;5009541;28;20291;-36
2022/03/16 07:48:17;;;;;;;59.20;39.17;;;;;;;;;;5009763;28;20298;-36
2022/03/16 07:50:43;;;;;;;56.97;37.00;;;;;;;;;;5011757;28;20196;-36
2022/03/16 07:53:09;;;;;;;57.00;37.07;;;;;;;;;;5013008;28;20207;-36
2022/03/16 07:55:35;;;;;;;57.93;37.63;;;;;;;;;;5011229;28;20753;-36
2022/03/16 07:58:02;;;;;;;56.87;36.80;;;;;;;;;;5010314;28;20246;-36
2022/03/16 08:00:28;;;;;;;55.10;35.77;;;;;;;;;;5007507;28;20643;-36
2022/03/16 08:02:54;;;;;;;50.97;35.13;;;;;;;;;;5013505;28;20873;-36
2022/03/16 08:05:24;;;;;;;54.13;35.00;;;;;;;;;;5015117;28;20833;-36
2022/03/16 08:07:50;;;;;;;59.97;38.23;;;;;;;;;;5013078;28;20498;-36
2022/03/16 08:10:16;;;;;;;52.33;36.90;;;;;;;;;;5006227;28;20290;-36
2022/03/16 08:12:43;;;;;;;54.87;37.53;;;;;;;;;;5008649;28;20520;-37
2022/03/16 08:15:09;;;;;;;56.70;37.37;;;;;;;;;;5007150;28;20830;-37
2022/03/16 08:17:35;;;;;;;51.27;35.40;;;;;;;;;;5011891;28;20173;-37
2022/03/16 08:20:01;;;;;;;52.63;36.90;;;;;;;;;;5012522;28;20604;-35
2022/03/16 08:22:29;;;;;;;56.83;36.97;;;;;;;;;;5008535;28;20300;-35
2022/03/16 08:24:55;;;;;;;53.43;36.90;;;;;;;;;;5006234;28;20176;-35
2022/03/16 08:27:22;;;;;;;53.43;36.07;;;;;;;;;;5010838;28;20428;-35
2022/03/16 08:29:48;;;;;;;54.30;36.60;;;;;;;;;;5011899;28;21136;-35
2022/03/16 08:32:14;;;;;;;49.47;35.87;;;;;;;;;;5010023;28;20176;-35
2022/03/16 08:34:40;;;;;;;52.60;35.93;;;;;;;;;;5008281;28;20199;-35
2022/03/16 08:37:06;;;;;;;55.97;36.67;;;;;;;;;;5008882;28;20574;-35
2022/03/16 08:39:33;;;;;;;48.90;35.17;;;;;;;;;;5008656;28;20191;-35
2022/03/16 08:41:59;;;;;;;52.90;34.67;;;;;;;;;;5013341;28;20418;-35
2022/03/16 08:44:25;;;;;;;48.93;33.77;;;;;;;;;;5010711;28;20191;-36
2022/03/16 08:46:52;;;;;;;47.20;31.67;;;;;;;;;;5009503;28;20382;-36
2022/03/16 08:49:18;;;;;;;42.60;29.87;;;;;;;;;;5006586;28;20612;-35
2022/03/16 08:51:44;;;;;;;45.13;29.60;;;;;;;;;;5010842;28;20685;-35
2022/03/16 08:54:11;;;;;;;47.07;30.47;;;;;;;;;;5007189;28;20645;-36
2022/03/16 08:56:37;;;;;;;46.33;32.40;;;;;;;;;;5012775;28;20185;-35
2022/03/16 08:59:03;;;;;;;47.73;30.93;;;;;;;;;;5005806;28;20181;-36
2022/03/16 09:01:29;;;;;;;47.07;32.03;;;;;;;;;;5003406;28;20381;-36
2022/03/16 09:03:55;;;;;;;45.40;32.17;;;;;;;;;;5005427;28;20469;-36
2022/03/16 09:06:21;;;;;;;43.57;31.30;;;;;;;;;;5016378;28;20176;-35
2022/03/16 09:08:47;;;;;;;37.57;26.87;;;;;;;;;;5006572;28;20614;-35
2022/03/16 09:11:13;;;;;;;38.30;26.17;;;;;;;;;;5010113;28;20192;-35
2022/03/16 09:13:40;;;;;;;34.27;24.43;;;;;;;;;;5010670;28;20183;-35
2022/03/16 09:16:06;;;;;;;36.17;24.57;;;;;;;;;;5005211;28;20176;-35
2022/03/16 09:18:32;;;;;;;36.33;24.67;;;;;;;;;;5007119;28;20238;-35
2022/03/16 09:21:00;;;;;;;39.33;25.77;;;;;;;;;;5010921;28;20179;-35
2022/03/16 09:23:31;;;;;;;36.00;24.97;;;;;;;;;;5014238;28;20193;-35
2022/03/16 09:26:01;;;;;;;34.13;24.40;;;;;;;;;;5009995;28;20172;-35
2022/03/16 09:28:28;;;;;;;37.33;25.30;;;;;;;;;;5008292;28;20192;-35
2022/03/16 09:30:54;;;;;;;34.70;24.53;;;;;;;;;;5008272;28;20223;-35
2022/03/16 09:33:24;;;;;;;35.83;23.63;;;;;;;;;;5004917;28;20598;-36
2022/03/16 09:35:51;;;;;;;35.50;23.13;;;;;;;;;;5009087;28;20483;-36
2022/03/16 09:38:18;;;;;;;34.37;23.23;;;;;;;;;;5007110;28;20449;-35
2022/03/16 09:40:44;;;;;;;36.70;24.50;;;;;;;;;;5006124;28;20223;-36
2022/03/16 09:43:11;;;;;;;34.33;23.80;;;;;;;;;;5002450;28;20659;-35
2022/03/16 09:45:46;;;;;;;39.37;24.27;;;;;;;;;;5011031;28;20203;-36
2022/03/16 09:48:13;;;;;;;38.43;25.23;;;;;;;;;;5008784;28;20747;-36
2022/03/16 09:50:41;;;;;;;38.07;24.73;;;;;;;;;;5005017;28;20188;-35
2022/03/16 09:53:08;;;;;;;35.63;23.87;;;;;;;;;;5008788;28;20179;-35
2022/03/16 09:55:34;;;;;;;34.73;24.50;;;;;;;;;;5007998;28;20713;-35
2022/03/16 09:58:00;;;;;;;35.40;24.27;;;;;;;;;;5011526;28;20597;-36
2022/03/16 10:00:27;;;;;;;34.97;24.70;;;;;;;;;;5006432;28;20598;-36
2022/03/16 10:02:54;;;;;;;33.87;24.10;;;;;;;;;;5006785;28;20176;-36
2022/03/16 10:05:22;;;;;;;33.53;23.13;;;;;;;;;;5008077;28;20242;-35
2022/03/16 10:07:48;;;;;;;39.07;24.30;;;;;;;;;;5011245;28;20552;-35
2022/03/16 10:13:14;;;;;;;37.93;23.43;;;;;;;;;;5009375;28;20758;-35
2022/03/16 10:15:40;;;;;;;36.37;24.97;;;;;;;;;;5007598;28;20974;-36
2022/03/16 10:18:06;;;;;;;36.93;25.90;;;;;;;;;;5008929;28;20266;-36
2022/03/16 10:20:33;;;;;;;43.27;27.50;;;;;;;;;;5011433;28;20772;-36
2022/03/16 10:23:07;;;;;;;38.80;26.20;;;;;;;;;;5008743;28;20717;-35
2022/03/16 10:25:53;;;;;;;38.23;26.50;;;;;;;;;;5008406;28;20632;-35
2022/03/16 10:28:21;;;;;;;39.87;27.60;;;;;;;;;;5004325;28;20553;-35
2022/03/16 10:30:50;;;;;;;38.90;27.40;;;;;;;;;;5011828;28;20295;-35
2022/03/16 10:33:18;;;;;;;38.97;28.03;;;;;;;;;;5013367;28;20386;-36
2022/03/16 10:35:55;;;;;;;40.93;27.80;;;;;;;;;;5008599;28;20188;-36
2022/03/16 10:38:22;;;;;;;39.80;27.10;;;;;;;;;;5006512;28;20175;-36
2022/03/16 10:40:49;;;;;;;36.20;27.07;;;;;;;;;;5007571;28;20873;-36
2022/03/16 10:49:00;;;;;;;37.47;25.37;;;;;;;;;;5009004;28;20433;-36
2022/03/16 10:51:26;;;;;;;35.83;22.97;;;;;;;;;;5002870;28;20306;-36
2022/03/16 10:53:53;;;;;;;33.03;24.70;;;;;;;;;;5008362;28;20180;-36
2022/03/16 10:56:20;;;;;;;36.50;26.00;;;;;;;;;;5009302;28;20176;-36
2022/03/16 10:58:46;;;;;;;33.20;24.10;;;;;;;;;;5011697;28;21312;-36
2022/03/16 11:01:15;;;;;;;33.10;23.90;;;;;;;;;;5007826;28;20450;-35
2022/03/16 11:03:44;;;;;;;34.70;25.40;;;;;;;;;;5004835;28;20186;-36
2022/03/16 11:06:10;;;;;;;34.47;23.93;;;;;;;;;;5004336;28;20196;-35
2022/03/16 11:08:38;;;;;;;38.73;26.80;;;;;;;;;;5007164;28;20212;-36
2022/03/16 11:13:27;;;;;;;37.00;24.20;;;;;;;;;;5013297;28;20235;-35
2022/03/16 11:13:51;;;;;;;32.63;22.97;;;;;;;;;;5007563;28;20188;-35
2022/03/16 11:16:20;;;;;;;32.73;23.67;;;;;;;;;;5001316;28;20188;-35
2022/03/16 11:18:48;;;;;;;34.50;23.63;;;;;;;;;;5009186;28;20184;-36
2022/03/16 11:21:15;;;;;;;35.30;23.07;;;;;;;;;;5004082;28;21152;-35
2022/03/16 11:26:39;;;;;;;35.80;24.37;;;;;;;;;;5004126;28;20190;-36
2022/03/16 11:29:24;;;;;;;33.73;25.07;;;;;;;;;;5011129;28;20260;-35
2022/03/16 11:31:50;;;;;;;36.67;25.57;;;;;;;;;;5010142;28;20595;-35
2022/03/16 11:34:25;;;;;;;33.83;24.13;;;;;;;;;;5004717;28;20579;-35
2022/03/16 11:37:01;;;;;;;38.17;26.03;;;;;;;;;;5009730;28;20203;-35
2022/03/16 11:39:38;;;;;;;35.00;25.00;;;;;;;;;;5009904;28;20188;-35
2022/03/16 11:42:07;;;;;;;33.80;24.63;;;;;;;;;;5013854;28;20183;-35
2022/03/16 11:44:34;;;;;;;34.80;24.90;;;;;;;;;;5013818;28;20183;-35
2022/03/16 11:47:13;;;;;;;36.67;26.70;;;;;;;;;;5015050;28;20195;-35
2022/03/16 11:49:42;;;;;;;34.80;24.40;;;;;;;;;;5007277;28;20628;-35
2022/03/16 11:52:09;;;;;;;34.23;25.77;;;;;;;;;;5007133;28;20200;-35
2022/03/16 11:54:48;;;;;;;34.37;24.87;;;;;;;;;;5012686;28;20498;-35
2022/03/16 11:57:34;;;;;;;36.83;25.67;;;;;;;;;;5010289;28;20539;-36
2022/03/16 12:00:11;;;;;;;37.30;26.80;;;;;;;;;;5014557;28;20355;-35
2022/03/16 12:02:38;;;;;;;38.43;26.23;;;;;;;;;;5012366;28;20175;-36
2022/03/16 12:05:04;;;;;;;38.23;25.73;;;;;;;;;;5010629;28;20291;-35
2022/03/16 12:07:34;;;;;;;28.53;20.30;;;;;;;;;;5012620;28;20210;-35
2022/03/16 12:10:03;;;;;;;28.43;19.73;;;;;;;;;;5009433;28;20715;-35
2022/03/16 12:15:31;;;;;;;27.90;19.77;;;;;;;;;;5011442;28;20486;-35
2022/03/16 12:17:57;;;;;;;31.00;21.23;;;;;;;;;;5014083;28;20172;-35
2022/03/16 12:20:24;;;;;;;29.60;20.90;;;;;;;;;;5012975;28;20180;-35
2022/03/16 12:22:50;;;;;;;24.13;17.60;;;;;;;;;;5011673;28;20172;-35
2022/03/16 12:25:26;;;;;;;26.17;18.27;;;;;;;;;;5006787;28;20285;-35
2022/03/16 12:30:54;;;;;;;21.40;14.80;;;;;;;;;;5011888;28;20786;-35
2022/03/16 12:33:22;;;;;;;19.87;14.90;;;;;;;;;;5010774;28;20203;-36
2022/03/16 12:35:59;;;;;;;15.33;9.67;;;;;;;;;;5009097;28;20263;-35
2022/03/16 12:38:32;;;;;;;16.43;10.33;;;;;;;;;;5008398;28;20569;-35
2022/03/16 12:43:46;;;;;;;15.07;9.40;;;;;;;;;;5011337;28;20509;-35
2022/03/16 12:46:17;;;;;;;17.03;12.83;;;;;;;;;;5008298;28;20787;-35
2022/03/16 12:48:48;;;;;;;24.60;14.73;;;;;;;;;;5013638;28;20192;-38
2022/03/16 12:51:18;;;;;;;19.43;13.50;;;;;;;;;;5007929;28;20204;-35
2022/03/16 12:53:44;;;;;;;16.73;11.43;;;;;;;;;;5011802;28;20176;-36
2022/03/16 12:56:17;;;;;;;19.03;12.20;;;;;;;;;;5007380;28;20271;-35
2022/03/16 12:58:52;;;;;;;19.17;13.90;;;;;;;;;;5009151;28;20597;-35
2022/03/16 13:01:21;;;;;;;23.57;13.50;;;;;;;;;;5008598;28;20175;-35
2022/03/16 13:03:49;;;;;;;28.10;14.30;;;;;;;;;;5012946;28;20555;-35
2022/03/16 13:06:20;;;;;;;17.10;11.60;;;;;;;;;;5013809;28;20192;-35
2022/03/16 13:08:49;;;;;;;17.03;11.60;;;;;;;;;;5008623;28;20716;-35
2022/03/16 13:11:28;;;;;;;16.23;10.50;;;;;;;;;;5005598;28;20317;-35
2022/03/16 13:14:07;;;;;;;15.77;11.00;;;;;;;;;;5008041;28;20160;-36
2022/03/16 13:16:43;;;;;;;17.20;11.87;;;;;;;;;;5010344;28;20180;-35
2022/03/16 13:19:24;;;;;;;17.50;10.30;;;;;;;;;;5012665;28;20694;-35
2022/03/16 13:21:51;;;;;;;15.70;9.33;;;;;;;;;;5007809;28;20770;-36
2022/03/16 13:24:18;;;;;;;16.87;11.17;;;;;;;;;;5011236;28;20479;-36
2022/03/16 13:26:44;;;;;;;18.00;9.43;;;;;;;;;;5010260;28;20195;-35
2022/03/16 13:29:12;;;;;;;19.53;10.30;;;;;;;;;;5011804;28;20631;-35
2022/03/16 13:31:40;;;;;;;18.10;10.07;;;;;;;;;;5012710;28;20199;-35
2022/03/16 13:34:08;;;;;;;13.00;9.03;;;;;;;;;;5013055;28;20223;-36
2022/03/16 13:36:37;;;;;;;16.37;9.83;;;;;;;;;;5010620;28;20581;-36
2022/03/16 13:39:22;;;;;;;14.67;9.63;;;;;;;;;;5011456;28;20496;-36
2022/03/16 13:42:11;;;;;;;16.30;10.50;;;;;;;;;;5012709;28;20712;-35
2022/03/16 13:44:39;;;;;;;14.77;10.17;;;;;;;;;;5010923;28;20233;-35
2022/03/16 13:47:06;;;;;;;14.53;9.60;;;;;;;;;;5011007;28;20326;-36
2022/03/16 13:49:37;;;;;;;17.80;10.57;;;;;;;;;;5011153;28;20183;-35
2022/03/16 13:52:07;;;;;;;17.23;10.80;;;;;;;;;;5011222;28;20747;-36
2022/03/16 13:54:35;;;;;;;16.53;10.23;;;;;;;;;;5012778;28;20282;-35
2022/03/16 13:57:11;;;;;;;16.90;11.30;;;;;;;;;;5009994;28;20472;-35
2022/03/16 13:59:38;;;;;;;15.37;12.17;;;;;;;;;;5012935;28;20466;-35
2022/03/16 14:02:14;;;;;;;16.43;11.97;;;;;;;;;;5011212;28;20179;-35
2022/03/16 14:04:42;;;;;;;16.13;10.90;;;;;;;;;;5008749;28;20684;-35
2022/03/16 14:07:39;;;;;;;14.20;10.30;;;;;;;;;;5010631;28;20183;-36
2022/03/16 14:10:06;;;;;;;19.83;11.77;;;;;;;;;;5003483;28;20192;-36
2022/03/16 14:12:34;;;;;;;17.63;11.37;;;;;;;;;;5013610;28;20251;-36
2022/03/16 14:15:01;;;;;;;17.20;11.73;;;;;;;;;;5011046;28;20254;-35
2022/03/16 14:17:42;;;;;;;18.47;12.43;;;;;;;;;;5010280;28;20258;-35
2022/03/16 14:20:13;;;;;;;20.23;12.90;;;;;;;;;;5009036;28;20172;-35
2022/03/16 14:22:43;;;;;;;19.07;12.70;;;;;;;;;;5012065;28;20791;-35
2022/03/16 14:25:17;;;;;;;14.90;12.17;;;;;;;;;;5003626;28;20195;-36
2022/03/16 14:27:43;;;;;;;18.30;13.00;;;;;;;;;;5009594;28;20279;-35
2022/03/16 14:30:09;;;;;;;16.63;12.37;;;;;;;;;;5008781;28;20750;-35
2022/03/16 14:32:35;;;;;;;17.90;12.30;;;;;;;;;;5014906;28;20291;-35
2022/03/16 14:35:01;;;;;;;17.67;12.73;;;;;;;;;;5008829;28;20204;-35
2022/03/16 14:37:28;;;;;;;17.37;12.67;;;;;;;;;;5009525;28;20208;-35
2022/03/16 14:39:54;;;;;;;19.13;11.90;;;;;;;;;;5008108;28;20177;-35
2022/03/16 14:42:24;;;;;;;16.97;10.53;;;;;;;;;;5006103;28;20206;-35